sensor_id;sensor_type;location;lat;lon;timestamp;temperature;humidity
9497;DHT22;4786;51.270;4.456;2022-12-17T00:01:48;-2.90;99.90
9497;DHT22;4786;51.270;4.456;2022-12-17T00:04:32;-2.90;99.90
9497;DHT22;4786;51.270;4.456;2022-12-17T00:07:17;-2.90;99.90
9497;DHT22;4786;51.270;4.456;2022-12-17T00:10:01;-3.00;99.90
9497;DHT22;4786;51.270;4.456;2022-12-17T00:12:47;-2.50;99.90
9497;DHT22;4786;51.270;4.456;2022-12-17T00:15:32;-2.90;99.90
9497;DHT22;4786;51.270;4.456;2022-12-17T00:18:16;-2.90;99.90
9497;DHT22;4786;51.270;4.456;2022-12-17T00:21:01;-3.00;99.90
9497;DHT22;4786;51.270;4.456;2022-12-17T00:23:45;-3.00;99.90
9497;DHT22;4786;51.270;4.456;2022-12-17T00:26:30;-3.10;99.90
9497;DHT22;4786;51.270;4.456;2022-12-17T00:29:14;-3.00;99.90
9497;DHT22;4786;51.270;4.456;2022-12-17T00:31:58;-3.00;99.90
9497;DHT22;4786;51.270;4.456;2022-12-17T00:34:42;-3.10;99.90
9497;DHT22;4786;51.270;4.456;2022-12-17T00:37:26;-3.20;99.90
9497;DHT22;4786;51.270;4.456;2022-12-17T00:40:11;-3.30;99.90
9497;DHT22;4786;51.270;4.456;2022-12-17T00:45:44;-3.20;99.90
9497;DHT22;4786;51.270;4.456;2022-12-17T00:48:29;-3.30;99.90
9497;DHT22;4786;51.270;4.456;2022-12-17T00:51:13;-3.20;99.90
9497;DHT22;4786;51.270;4.456;2022-12-17T00:53:57;-3.20;99.90
9497;DHT22;4786;51.270;4.456;2022-12-17T00:56:41;-3.20;99.90
9497;DHT22;4786;51.270;4.456;2022-12-17T00:59:25;-3.20;99.90
9497;DHT22;4786;51.270;4.456;2022-12-17T01:02:10;-3.30;99.90
9497;DHT22;4786;51.270;4.456;2022-12-17T01:04:54;-3.40;99.90
9497;DHT22;4786;51.270;4.456;2022-12-17T01:07:38;-3.20;99.90
9497;DHT22;4786;51.270;4.456;2022-12-17T01:10:22;-3.10;99.90
9497;DHT22;4786;51.270;4.456;2022-12-17T01:13:07;-3.20;99.90
9497;DHT22;4786;51.270;4.456;2022-12-17T01:15:51;-3.20;99.90
9497;DHT22;4786;51.270;4.456;2022-12-17T01:18:35;-3.30;99.90
9497;DHT22;4786;51.270;4.456;2022-12-17T01:21:19;-3.40;99.90
9497;DHT22;4786;51.270;4.456;2022-12-17T01:24:07;-3.30;99.90
9497;DHT22;4786;51.270;4.456;2022-12-17T01:26:51;-3.40;99.90
9497;DHT22;4786;51.270;4.456;2022-12-17T01:29:35;-3.40;99.90
9497;DHT22;4786;51.270;4.456;2022-12-17T01:32:19;-3.50;99.90
9497;DHT22;4786;51.270;4.456;2022-12-17T01:35:03;-3.50;99.90
9497;DHT22;4786;51.270;4.456;2022-12-17T01:37:48;-3.50;99.90
9497;DHT22;4786;51.270;4.456;2022-12-17T01:40:31;-3.50;99.90
9497;DHT22;4786;51.270;4.456;2022-12-17T01:43:32;-3.60;99.90
9497;DHT22;4786;51.270;4.456;2022-12-17T01:46:17;-3.70;99.90
9497;DHT22;4786;51.270;4.456;2022-12-17T01:49:02;-3.80;99.90
9497;DHT22;4786;51.270;4.456;2022-12-17T01:51:48;-3.80;99.90
9497;DHT22;4786;51.270;4.456;2022-12-17T01:54:35;-3.80;99.90
9497;DHT22;4786;51.270;4.456;2022-12-17T01:57:19;-3.80;99.90
9497;DHT22;4786;51.270;4.456;2022-12-17T02:00:09;-3.90;99.90
9497;DHT22;4786;51.270;4.456;2022-12-17T02:02:53;-4.00;99.90
9497;DHT22;4786;51.270;4.456;2022-12-17T02:08:40;-3.80;99.90
9497;DHT22;4786;51.270;4.456;2022-12-17T02:11:43;-3.90;99.90
9497;DHT22;4786;51.270;4.456;2022-12-17T02:14:53;-3.90;99.90
9497;DHT22;4786;51.270;4.456;2022-12-17T02:17:42;-3.90;99.90
9497;DHT22;4786;51.270;4.456;2022-12-17T02:20:47;-3.80;99.90
9497;DHT22;4786;51.270;4.456;2022-12-17T02:29:15;-3.90;99.90
9497;DHT22;4786;51.270;4.456;2022-12-17T02:32:01;-4.00;99.90
9497;DHT22;4786;51.270;4.456;2022-12-17T02:34:47;-4.10;99.90
9497;DHT22;4786;51.270;4.456;2022-12-17T02:37:31;-4.20;99.90
9497;DHT22;4786;51.270;4.456;2022-12-17T02:40:17;-4.20;99.90
9497;DHT22;4786;51.270;4.456;2022-12-17T02:43:02;-4.20;99.90
9497;DHT22;4786;51.270;4.456;2022-12-17T02:46:07;-3.90;99.90
9497;DHT22;4786;51.270;4.456;2022-12-17T02:48:52;-3.80;99.90
9497;DHT22;4786;51.270;4.456;2022-12-17T02:51:36;-3.80;99.90
9497;DHT22;4786;51.270;4.456;2022-12-17T02:54:20;-3.80;99.90
9497;DHT22;4786;51.270;4.456;2022-12-17T02:57:04;-4.00;99.90
9497;DHT22;4786;51.270;4.456;2022-12-17T02:59:49;-4.10;99.90
9497;DHT22;4786;51.270;4.456;2022-12-17T03:02:32;-4.20;99.90
9497;DHT22;4786;51.270;4.456;2022-12-17T03:05:16;-4.20;99.90
9497;DHT22;4786;51.270;4.456;2022-12-17T03:08:00;-4.20;99.90
9497;DHT22;4786;51.270;4.456;2022-12-17T03:10:44;-3.90;99.90
9497;DHT22;4786;51.270;4.456;2022-12-17T03:13:29;-3.90;99.90
9497;DHT22;4786;51.270;4.456;2022-12-17T03:16:16;-3.90;99.90
9497;DHT22;4786;51.270;4.456;2022-12-17T03:19:00;-3.90;99.90
9497;DHT22;4786;51.270;4.456;2022-12-17T03:21:44;-4.00;99.90
9497;DHT22;4786;51.270;4.456;2022-12-17T03:24:29;-4.00;99.90
9497;DHT22;4786;51.270;4.456;2022-12-17T03:27:14;-4.10;99.90
9497;DHT22;4786;51.270;4.456;2022-12-17T03:29:58;-4.10;99.90
9497;DHT22;4786;51.270;4.456;2022-12-17T03:32:42;-4.00;99.90
9497;DHT22;4786;51.270;4.456;2022-12-17T03:35:26;-3.80;99.90
9497;DHT22;4786;51.270;4.456;2022-12-17T03:38:11;-3.80;99.90
9497;DHT22;4786;51.270;4.456;2022-12-17T03:40:56;-3.80;99.90
9497;DHT22;4786;51.270;4.456;2022-12-17T03:43:41;-3.80;99.90
9497;DHT22;4786;51.270;4.456;2022-12-17T03:46:25;-3.90;99.90
9497;DHT22;4786;51.270;4.456;2022-12-17T03:49:09;-4.00;99.90
9497;DHT22;4786;51.270;4.456;2022-12-17T03:51:54;-4.10;99.90
9497;DHT22;4786;51.270;4.456;2022-12-17T03:54:38;-4.10;99.90
9497;DHT22;4786;51.270;4.456;2022-12-17T03:57:23;-4.00;99.90
9497;DHT22;4786;51.270;4.456;2022-12-17T04:00:07;-4.00;99.90
9497;DHT22;4786;51.270;4.456;2022-12-17T04:02:52;-4.10;99.90
9497;DHT22;4786;51.270;4.456;2022-12-17T04:05:36;-4.20;99.90
9497;DHT22;4786;51.270;4.456;2022-12-17T04:08:21;-4.30;99.90
9497;DHT22;4786;51.270;4.456;2022-12-17T04:11:05;-4.40;99.90
9497;DHT22;4786;51.270;4.456;2022-12-17T04:13:50;-4.60;99.90
9497;DHT22;4786;51.270;4.456;2022-12-17T04:16:34;-4.60;99.90
9497;DHT22;4786;51.270;4.456;2022-12-17T04:19:18;-4.60;99.90
9497;DHT22;4786;51.270;4.456;2022-12-17T04:22:02;-4.50;99.90
9497;DHT22;4786;51.270;4.456;2022-12-17T04:24:48;-4.50;99.90
9497;DHT22;4786;51.270;4.456;2022-12-17T04:27:33;-4.30;99.90
9497;DHT22;4786;51.270;4.456;2022-12-17T04:30:17;-3.90;99.90
9497;DHT22;4786;51.270;4.456;2022-12-17T04:33:01;-4.10;99.90
9497;DHT22;4786;51.270;4.456;2022-12-17T04:35:45;-3.90;99.90
9497;DHT22;4786;51.270;4.456;2022-12-17T04:38:29;-3.80;99.90
9497;DHT22;4786;51.270;4.456;2022-12-17T04:41:13;-3.70;99.90
9497;DHT22;4786;51.270;4.456;2022-12-17T04:43:57;-3.60;99.90
9497;DHT22;4786;51.270;4.456;2022-12-17T04:46:42;-3.70;99.90
9497;DHT22;4786;51.270;4.456;2022-12-17T04:49:26;-3.70;99.90
9497;DHT22;4786;51.270;4.456;2022-12-17T04:52:13;-3.80;99.90
9497;DHT22;4786;51.270;4.456;2022-12-17T04:54:57;-3.90;99.90
9497;DHT22;4786;51.270;4.456;2022-12-17T04:57:42;-3.90;99.90
9497;DHT22;4786;51.270;4.456;2022-12-17T05:00:26;-3.90;99.90
9497;DHT22;4786;51.270;4.456;2022-12-17T05:03:12;-4.00;99.90
9497;DHT22;4786;51.270;4.456;2022-12-17T05:05:57;-4.10;99.90
9497;DHT22;4786;51.270;4.456;2022-12-17T05:08:41;-4.20;99.90
9497;DHT22;4786;51.270;4.456;2022-12-17T05:11:25;-4.20;99.90
9497;DHT22;4786;51.270;4.456;2022-12-17T05:14:09;-4.30;99.90
9497;DHT22;4786;51.270;4.456;2022-12-17T05:16:53;-4.30;99.90
9497;DHT22;4786;51.270;4.456;2022-12-17T05:19:38;-4.30;99.90
9497;DHT22;4786;51.270;4.456;2022-12-17T05:22:22;-4.20;99.90
9497;DHT22;4786;51.270;4.456;2022-12-17T05:25:06;-4.30;99.90
9497;DHT22;4786;51.270;4.456;2022-12-17T05:27:50;-4.30;99.90
9497;DHT22;4786;51.270;4.456;2022-12-17T05:30:35;-4.30;99.90
9497;DHT22;4786;51.270;4.456;2022-12-17T05:33:19;-4.20;99.90
9497;DHT22;4786;51.270;4.456;2022-12-17T05:36:04;-4.20;99.90
9497;DHT22;4786;51.270;4.456;2022-12-17T05:38:48;-4.20;99.90
9497;DHT22;4786;51.270;4.456;2022-12-17T05:41:33;-4.10;99.90
9497;DHT22;4786;51.270;4.456;2022-12-17T05:44:17;-4.10;99.90
9497;DHT22;4786;51.270;4.456;2022-12-17T05:47:04;-4.10;99.90
9497;DHT22;4786;51.270;4.456;2022-12-17T05:49:49;-4.10;99.90
9497;DHT22;4786;51.270;4.456;2022-12-17T05:52:33;-4.10;99.90
9497;DHT22;4786;51.270;4.456;2022-12-17T05:55:17;-4.00;99.90
9497;DHT22;4786;51.270;4.456;2022-12-17T06:00:46;-3.90;99.90
9497;DHT22;4786;51.270;4.456;2022-12-17T06:03:30;-4.00;99.90
9497;DHT22;4786;51.270;4.456;2022-12-17T06:06:14;-4.00;99.90
9497;DHT22;4786;51.270;4.456;2022-12-17T06:08:58;-4.00;99.90
9497;DHT22;4786;51.270;4.456;2022-12-17T06:11:45;-4.00;99.90
9497;DHT22;4786;51.270;4.456;2022-12-17T06:14:29;-4.00;99.90
9497;DHT22;4786;51.270;4.456;2022-12-17T06:17:13;-4.00;99.90
9497;DHT22;4786;51.270;4.456;2022-12-17T06:19:57;-3.90;99.90
9497;DHT22;4786;51.270;4.456;2022-12-17T06:22:41;-3.80;99.90
9497;DHT22;4786;51.270;4.456;2022-12-17T06:25:25;-3.70;99.90
9497;DHT22;4786;51.270;4.456;2022-12-17T06:28:09;-3.60;99.90
9497;DHT22;4786;51.270;4.456;2022-12-17T06:30:54;-3.60;99.90
9497;DHT22;4786;51.270;4.456;2022-12-17T06:33:39;-3.70;99.90
9497;DHT22;4786;51.270;4.456;2022-12-17T06:36:23;-3.80;99.90
9497;DHT22;4786;51.270;4.456;2022-12-17T06:39:08;-3.80;99.90
9497;DHT22;4786;51.270;4.456;2022-12-17T06:41:52;-3.80;99.90
9497;DHT22;4786;51.270;4.456;2022-12-17T06:44:36;-4.00;99.90
9497;DHT22;4786;51.270;4.456;2022-12-17T06:47:21;-4.00;99.90
9497;DHT22;4786;51.270;4.456;2022-12-17T06:50:06;-3.90;99.90
9497;DHT22;4786;51.270;4.456;2022-12-17T06:52:58;-3.80;99.90
9497;DHT22;4786;51.270;4.456;2022-12-17T06:55:42;-3.90;99.90
9497;DHT22;4786;51.270;4.456;2022-12-17T06:58:26;-3.80;99.90
9497;DHT22;4786;51.270;4.456;2022-12-17T07:01:11;-4.00;99.90
9497;DHT22;4786;51.270;4.456;2022-12-17T07:03:55;-4.10;99.90
9497;DHT22;4786;51.270;4.456;2022-12-17T07:06:39;-3.90;99.90
9497;DHT22;4786;51.270;4.456;2022-12-17T07:09:24;-3.90;99.90
9497;DHT22;4786;51.270;4.456;2022-12-17T07:12:08;-3.90;99.90
9497;DHT22;4786;51.270;4.456;2022-12-17T07:14:52;-4.00;99.90
9497;DHT22;4786;51.270;4.456;2022-12-17T07:17:36;-4.00;99.90
9497;DHT22;4786;51.270;4.456;2022-12-17T07:20:20;-3.90;99.90
9497;DHT22;4786;51.270;4.456;2022-12-17T07:23:05;-3.80;99.90
9497;DHT22;4786;51.270;4.456;2022-12-17T07:25:48;-3.60;99.90
9497;DHT22;4786;51.270;4.456;2022-12-17T07:28:33;-3.40;99.90
9497;DHT22;4786;51.270;4.456;2022-12-17T07:31:17;-3.40;99.90
9497;DHT22;4786;51.270;4.456;2022-12-17T07:34:01;-3.50;99.90
9497;DHT22;4786;51.270;4.456;2022-12-17T07:36:46;-3.40;99.90
9497;DHT22;4786;51.270;4.456;2022-12-17T07:39:30;-3.30;99.90
9497;DHT22;4786;51.270;4.456;2022-12-17T07:42:14;-3.40;99.90
9497;DHT22;4786;51.270;4.456;2022-12-17T07:44:58;-3.30;99.90
9497;DHT22;4786;51.270;4.456;2022-12-17T07:47:51;-3.40;99.90
9497;DHT22;4786;51.270;4.456;2022-12-17T07:50:35;-3.30;99.90
9497;DHT22;4786;51.270;4.456;2022-12-17T07:53:19;-3.40;99.90
9497;DHT22;4786;51.270;4.456;2022-12-17T07:56:03;-3.40;99.90
9497;DHT22;4786;51.270;4.456;2022-12-17T07:58:47;-3.50;99.90
9497;DHT22;4786;51.270;4.456;2022-12-17T08:01:31;-3.60;99.90
9497;DHT22;4786;51.270;4.456;2022-12-17T08:04:15;-3.70;99.90
9497;DHT22;4786;51.270;4.456;2022-12-17T08:06:59;-3.70;99.90
9497;DHT22;4786;51.270;4.456;2022-12-17T08:09:43;-3.70;99.90
9497;DHT22;4786;51.270;4.456;2022-12-17T08:12:27;-3.70;99.90
9497;DHT22;4786;51.270;4.456;2022-12-17T08:15:11;-3.70;99.90
9497;DHT22;4786;51.270;4.456;2022-12-17T08:18:02;-3.60;99.90
9497;DHT22;4786;51.270;4.456;2022-12-17T08:20:46;-3.60;99.90
9497;DHT22;4786;51.270;4.456;2022-12-17T08:23:30;-3.50;99.90
9497;DHT22;4786;51.270;4.456;2022-12-17T08:26:15;-3.40;99.90
9497;DHT22;4786;51.270;4.456;2022-12-17T08:29:04;-3.30;99.90
9497;DHT22;4786;51.270;4.456;2022-12-17T08:31:48;-3.30;99.90
9497;DHT22;4786;51.270;4.456;2022-12-17T08:34:32;-3.30;99.90
9497;DHT22;4786;51.270;4.456;2022-12-17T08:37:16;-3.30;99.90
9497;DHT22;4786;51.270;4.456;2022-12-17T08:40:00;-3.20;99.90
9497;DHT22;4786;51.270;4.456;2022-12-17T08:42:44;-3.00;99.90
9497;DHT22;4786;51.270;4.456;2022-12-17T08:45:28;-2.90;99.90
9497;DHT22;4786;51.270;4.456;2022-12-17T08:48:12;-2.80;99.90
9497;DHT22;4786;51.270;4.456;2022-12-17T08:50:56;-2.70;99.90
9497;DHT22;4786;51.270;4.456;2022-12-17T08:53:40;-2.80;99.90
9497;DHT22;4786;51.270;4.456;2022-12-17T08:56:24;-2.70;99.90
9497;DHT22;4786;51.270;4.456;2022-12-17T08:59:09;-2.70;99.90
9497;DHT22;4786;51.270;4.456;2022-12-17T09:01:52;-2.60;99.90
9497;DHT22;4786;51.270;4.456;2022-12-17T09:04:37;-2.40;99.90
9497;DHT22;4786;51.270;4.456;2022-12-17T09:07:21;-2.40;99.90
9497;DHT22;4786;51.270;4.456;2022-12-17T09:10:05;-1.90;99.90
9497;DHT22;4786;51.270;4.456;2022-12-17T09:12:49;-2.10;99.90
9497;DHT22;4786;51.270;4.456;2022-12-17T09:15:33;-2.10;99.90
9497;DHT22;4786;51.270;4.456;2022-12-17T09:18:19;-2.00;99.90
9497;DHT22;4786;51.270;4.456;2022-12-17T09:21:03;-1.80;99.90
9497;DHT22;4786;51.270;4.456;2022-12-17T09:23:47;-1.90;99.90
9497;DHT22;4786;51.270;4.456;2022-12-17T09:26:31;-2.00;99.90
9497;DHT22;4786;51.270;4.456;2022-12-17T09:29:15;-1.90;99.90
9497;DHT22;4786;51.270;4.456;2022-12-17T09:32:10;-1.90;99.90
9497;DHT22;4786;51.270;4.456;2022-12-17T09:34:54;-1.90;99.90
9497;DHT22;4786;51.270;4.456;2022-12-17T09:37:38;-1.80;99.90
9497;DHT22;4786;51.270;4.456;2022-12-17T09:40:23;-1.80;99.90
9497;DHT22;4786;51.270;4.456;2022-12-17T09:49:20;-1.80;99.90
9497;DHT22;4786;51.270;4.456;2022-12-17T09:55:37;-1.70;99.90
9497;DHT22;4786;51.270;4.456;2022-12-17T09:58:25;-1.70;99.90
9497;DHT22;4786;51.270;4.456;2022-12-17T10:01:36;-1.80;99.90
9497;DHT22;4786;51.270;4.456;2022-12-17T10:04:48;-1.80;99.90
9497;DHT22;4786;51.270;4.456;2022-12-17T10:07:34;-1.80;99.90
9497;DHT22;4786;51.270;4.456;2022-12-17T10:10:22;-1.70;99.90
9497;DHT22;4786;51.270;4.456;2022-12-17T10:13:17;-1.70;99.90
9497;DHT22;4786;51.270;4.456;2022-12-17T10:16:24;-1.80;99.90
9497;DHT22;4786;51.270;4.456;2022-12-17T10:19:27;-1.90;99.90
9497;DHT22;4786;51.270;4.456;2022-12-17T10:22:13;-1.80;99.90
9497;DHT22;4786;51.270;4.456;2022-12-17T10:25:04;-1.70;99.90
9497;DHT22;4786;51.270;4.456;2022-12-17T10:27:49;-1.80;99.90
9497;DHT22;4786;51.270;4.456;2022-12-17T10:30:33;-1.60;99.90
9497;DHT22;4786;51.270;4.456;2022-12-17T10:33:19;-1.80;99.90
9497;DHT22;4786;51.270;4.456;2022-12-17T10:36:15;-1.80;99.90
9497;DHT22;4786;51.270;4.456;2022-12-17T10:39:03;-1.80;99.90
9497;DHT22;4786;51.270;4.456;2022-12-17T10:41:47;-1.70;99.90
9497;DHT22;4786;51.270;4.456;2022-12-17T10:44:34;-1.60;99.90
9497;DHT22;4786;51.270;4.456;2022-12-17T10:47:21;-1.60;99.90
9497;DHT22;4786;51.270;4.456;2022-12-17T10:53:02;-1.50;99.90
9497;DHT22;4786;51.270;4.456;2022-12-17T10:55:53;-1.40;99.90
9497;DHT22;4786;51.270;4.456;2022-12-17T10:58:43;-1.40;99.90
9497;DHT22;4786;51.270;4.456;2022-12-17T11:01:29;-1.30;99.90
9497;DHT22;4786;51.270;4.456;2022-12-17T11:04:29;-1.20;99.90
9497;DHT22;4786;51.270;4.456;2022-12-17T11:07:27;-1.20;99.90
9497;DHT22;4786;51.270;4.456;2022-12-17T11:10:21;-1.10;99.90
9497;DHT22;4786;51.270;4.456;2022-12-17T11:13:10;-1.00;99.90
9497;DHT22;4786;51.270;4.456;2022-12-17T11:15:57;-0.90;99.90
9497;DHT22;4786;51.270;4.456;2022-12-17T11:21:50;-0.80;99.90
9497;DHT22;4786;51.270;4.456;2022-12-17T11:24:55;-0.60;99.90
9497;DHT22;4786;51.270;4.456;2022-12-17T11:27:45;-0.50;99.90
9497;DHT22;4786;51.270;4.456;2022-12-17T11:30:33;-0.50;99.90
9497;DHT22;4786;51.270;4.456;2022-12-17T11:33:34;-0.40;99.90
9497;DHT22;4786;51.270;4.456;2022-12-17T11:36:29;-0.30;99.90
9497;DHT22;4786;51.270;4.456;2022-12-17T11:39:33;-0.10;99.90
9497;DHT22;4786;51.270;4.456;2022-12-17T11:42:32;-0.10;99.90
9497;DHT22;4786;51.270;4.456;2022-12-17T11:48:28;0.10;99.90
9497;DHT22;4786;51.270;4.456;2022-12-17T12:00:03;0.20;99.90
9497;DHT22;4786;51.270;4.456;2022-12-17T12:06:16;0.20;99.90
9497;DHT22;4786;51.270;4.456;2022-12-17T12:09:15;0.40;99.90
9497;DHT22;4786;51.270;4.456;2022-12-17T12:35:43;-0.50;99.90
9497;DHT22;4786;51.270;4.456;2022-12-17T12:38:33;-0.60;99.90
9497;DHT22;4786;51.270;4.456;2022-12-17T12:44:33;-0.60;99.90
9497;DHT22;4786;51.270;4.456;2022-12-17T12:47:44;-0.70;99.90
9497;DHT22;4786;51.270;4.456;2022-12-17T12:50:48;-0.70;99.90
9497;DHT22;4786;51.270;4.456;2022-12-17T12:53:33;-0.80;99.90
9497;DHT22;4786;51.270;4.456;2022-12-17T12:56:25;-0.80;99.90
9497;DHT22;4786;51.270;4.456;2022-12-17T12:59:15;-0.80;99.90
9497;DHT22;4786;51.270;4.456;2022-12-17T13:02:34;-0.60;99.90
9497;DHT22;4786;51.270;4.456;2022-12-17T13:10:34;-0.80;99.90
9497;DHT22;4786;51.270;4.456;2022-12-17T13:15:56;-0.80;99.90
9497;DHT22;4786;51.270;4.456;2022-12-17T13:18:34;-0.70;99.90
9497;DHT22;4786;51.270;4.456;2022-12-17T13:21:25;-0.80;99.90
9497;DHT22;4786;51.270;4.456;2022-12-17T13:23:51;-0.60;99.90
9497;DHT22;4786;51.270;4.456;2022-12-17T13:26:21;-0.40;99.90
9497;DHT22;4786;51.270;4.456;2022-12-17T13:31:21;-0.60;99.90
9497;DHT22;4786;51.270;4.456;2022-12-17T13:34:19;-0.20;99.90
9497;DHT22;4786;51.270;4.456;2022-12-17T13:42:00;-0.70;99.90
9497;DHT22;4786;51.270;4.456;2022-12-17T13:44:40;-0.70;99.90
9497;DHT22;4786;51.270;4.456;2022-12-17T13:47:29;-0.70;99.90
9497;DHT22;4786;51.270;4.456;2022-12-17T13:49:58;-0.60;99.90
9497;DHT22;4786;51.270;4.456;2022-12-17T13:52:27;-0.60;99.90
9497;DHT22;4786;51.270;4.456;2022-12-17T13:54:53;-0.70;99.90
9497;DHT22;4786;51.270;4.456;2022-12-17T13:57:29;-0.70;99.90
9497;DHT22;4786;51.270;4.456;2022-12-17T13:59:58;-0.60;99.90
9497;DHT22;4786;51.270;4.456;2022-12-17T14:04:56;-0.60;99.90
9497;DHT22;4786;51.270;4.456;2022-12-17T14:07:23;-0.70;99.90
9497;DHT22;4786;51.270;4.456;2022-12-17T14:09:50;-0.70;99.90
9497;DHT22;4786;51.270;4.456;2022-12-17T14:12:19;-0.60;99.90
9497;DHT22;4786;51.270;4.456;2022-12-17T14:17:36;-0.40;99.90
9497;DHT22;4786;51.270;4.456;2022-12-17T14:20:05;-0.50;99.90
9497;DHT22;4786;51.270;4.456;2022-12-17T14:22:37;-0.40;99.90
9497;DHT22;4786;51.270;4.456;2022-12-17T14:25:19;-0.50;99.90
9497;DHT22;4786;51.270;4.456;2022-12-17T14:27:57;-0.50;99.90
9497;DHT22;4786;51.270;4.456;2022-12-17T14:30:38;-0.50;99.90
9497;DHT22;4786;51.270;4.456;2022-12-17T14:33:29;-0.40;99.90
9497;DHT22;4786;51.270;4.456;2022-12-17T14:35:57;-0.40;99.90
9497;DHT22;4786;51.270;4.456;2022-12-17T14:38:24;-0.40;99.90
9497;DHT22;4786;51.270;4.456;2022-12-17T14:40:51;-0.40;99.90
9497;DHT22;4786;51.270;4.456;2022-12-17T14:43:26;-0.50;99.90
9497;DHT22;4786;51.270;4.456;2022-12-17T14:45:58;-0.50;99.90
9497;DHT22;4786;51.270;4.456;2022-12-17T14:48:43;-0.50;99.90
9497;DHT22;4786;51.270;4.456;2022-12-17T14:51:41;-0.50;99.90
9497;DHT22;4786;51.270;4.456;2022-12-17T14:56:51;-0.50;99.90
9497;DHT22;4786;51.270;4.456;2022-12-17T14:59:37;-0.50;99.90
9497;DHT22;4786;51.270;4.456;2022-12-17T15:04:30;-0.50;99.90
9497;DHT22;4786;51.270;4.456;2022-12-17T15:06:57;-0.50;99.90
9497;DHT22;4786;51.270;4.456;2022-12-17T15:09:23;-0.50;99.90
9497;DHT22;4786;51.270;4.456;2022-12-17T15:11:50;-0.60;99.90
9497;DHT22;4786;51.270;4.456;2022-12-17T15:14:16;-0.60;99.90
9497;DHT22;4786;51.270;4.456;2022-12-17T15:16:43;-0.60;99.90
9497;DHT22;4786;51.270;4.456;2022-12-17T15:19:10;-0.80;99.90
9497;DHT22;4786;51.270;4.456;2022-12-17T15:21:36;-0.70;99.90
9497;DHT22;4786;51.270;4.456;2022-12-17T15:24:02;-0.70;99.90
9497;DHT22;4786;51.270;4.456;2022-12-17T15:26:29;-0.60;99.90
9497;DHT22;4786;51.270;4.456;2022-12-17T15:28:54;-0.60;99.90
9497;DHT22;4786;51.270;4.456;2022-12-17T15:31:22;-0.50;99.90
9497;DHT22;4786;51.270;4.456;2022-12-17T15:33:48;-0.50;99.90
9497;DHT22;4786;51.270;4.456;2022-12-17T15:36:14;-0.60;99.90
9497;DHT22;4786;51.270;4.456;2022-12-17T15:38:40;-0.60;99.90
9497;DHT22;4786;51.270;4.456;2022-12-17T15:41:06;-0.60;99.90
9497;DHT22;4786;51.270;4.456;2022-12-17T15:43:50;-0.60;99.90
9497;DHT22;4786;51.270;4.456;2022-12-17T15:46:16;-0.60;99.90
9497;DHT22;4786;51.270;4.456;2022-12-17T15:48:42;-0.50;99.90
9497;DHT22;4786;51.270;4.456;2022-12-17T15:51:08;-0.60;99.90
9497;DHT22;4786;51.270;4.456;2022-12-17T15:53:34;-0.50;99.90
9497;DHT22;4786;51.270;4.456;2022-12-17T15:56:01;-0.50;99.90
9497;DHT22;4786;51.270;4.456;2022-12-17T15:58:27;-0.60;99.90
9497;DHT22;4786;51.270;4.456;2022-12-17T16:00:52;-0.60;99.90
9497;DHT22;4786;51.270;4.456;2022-12-17T16:03:18;-0.70;99.90
9497;DHT22;4786;51.270;4.456;2022-12-17T16:05:45;-0.70;99.90
9497;DHT22;4786;51.270;4.456;2022-12-17T16:08:11;-0.80;99.90
9497;DHT22;4786;51.270;4.456;2022-12-17T16:10:37;-0.80;99.90
9497;DHT22;4786;51.270;4.456;2022-12-17T16:13:03;-0.70;99.90
9497;DHT22;4786;51.270;4.456;2022-12-17T16:15:30;-0.80;99.90
9497;DHT22;4786;51.270;4.456;2022-12-17T16:17:56;-0.70;99.90
9497;DHT22;4786;51.270;4.456;2022-12-17T16:20:22;-0.70;99.90
9497;DHT22;4786;51.270;4.456;2022-12-17T16:22:48;-0.80;99.90
9497;DHT22;4786;51.270;4.456;2022-12-17T16:25:15;-0.80;99.90
9497;DHT22;4786;51.270;4.456;2022-12-17T16:27:41;-0.90;99.90
9497;DHT22;4786;51.270;4.456;2022-12-17T16:30:07;-0.90;99.90
9497;DHT22;4786;51.270;4.456;2022-12-17T16:32:34;-0.90;99.90
9497;DHT22;4786;51.270;4.456;2022-12-17T16:35:01;-0.70;99.90
9497;DHT22;4786;51.270;4.456;2022-12-17T16:37:27;-0.90;99.90
9497;DHT22;4786;51.270;4.456;2022-12-17T16:39:53;-0.90;99.90
9497;DHT22;4786;51.270;4.456;2022-12-17T16:42:19;-0.70;99.90
9497;DHT22;4786;51.270;4.456;2022-12-17T16:44:45;-1.00;99.90
9497;DHT22;4786;51.270;4.456;2022-12-17T16:47:10;-1.10;99.90
9497;DHT22;4786;51.270;4.456;2022-12-17T16:49:36;-1.10;99.90
9497;DHT22;4786;51.270;4.456;2022-12-17T16:52:03;-1.10;99.90
9497;DHT22;4786;51.270;4.456;2022-12-17T16:54:31;-1.00;99.90
9497;DHT22;4786;51.270;4.456;2022-12-17T16:56:57;-1.20;99.90
9497;DHT22;4786;51.270;4.456;2022-12-17T16:59:23;-1.10;99.90
9497;DHT22;4786;51.270;4.456;2022-12-17T17:01:51;-1.10;99.90
9497;DHT22;4786;51.270;4.456;2022-12-17T17:04:19;-0.70;99.90
9497;DHT22;4786;51.270;4.456;2022-12-17T17:06:51;-0.90;99.90
9497;DHT22;4786;51.270;4.456;2022-12-17T17:09:17;-0.90;99.90
9497;DHT22;4786;51.270;4.456;2022-12-17T17:11:43;-0.70;99.90
9497;DHT22;4786;51.270;4.456;2022-12-17T17:14:09;-0.80;99.90
9497;DHT22;4786;51.270;4.456;2022-12-17T17:16:35;-0.90;99.90
9497;DHT22;4786;51.270;4.456;2022-12-17T17:19:02;-1.10;99.90
9497;DHT22;4786;51.270;4.456;2022-12-17T17:21:33;-1.10;99.90
9497;DHT22;4786;51.270;4.456;2022-12-17T17:24:06;-1.20;99.90
9497;DHT22;4786;51.270;4.456;2022-12-17T17:26:33;-1.20;99.90
9497;DHT22;4786;51.270;4.456;2022-12-17T17:29:00;-1.30;99.90
9497;DHT22;4786;51.270;4.456;2022-12-17T17:31:26;-1.20;99.90
9497;DHT22;4786;51.270;4.456;2022-12-17T17:33:52;-1.20;99.90
9497;DHT22;4786;51.270;4.456;2022-12-17T17:36:21;-1.20;99.90
9497;DHT22;4786;51.270;4.456;2022-12-17T17:38:48;-1.20;99.90
9497;DHT22;4786;51.270;4.456;2022-12-17T17:41:17;-1.10;99.90
9497;DHT22;4786;51.270;4.456;2022-12-17T17:43:43;-1.10;99.90
9497;DHT22;4786;51.270;4.456;2022-12-17T17:48:37;-1.10;99.90
9497;DHT22;4786;51.270;4.456;2022-12-17T17:51:09;-1.20;99.90
9497;DHT22;4786;51.270;4.456;2022-12-17T17:53:36;-1.00;99.90
9497;DHT22;4786;51.270;4.456;2022-12-17T17:56:05;-1.10;99.90
9497;DHT22;4786;51.270;4.456;2022-12-17T17:58:32;-1.10;99.90
9497;DHT22;4786;51.270;4.456;2022-12-17T18:00:59;-1.10;99.90
9497;DHT22;4786;51.270;4.456;2022-12-17T18:03:27;-1.20;99.90
9497;DHT22;4786;51.270;4.456;2022-12-17T18:05:53;-1.10;99.90
9497;DHT22;4786;51.270;4.456;2022-12-17T18:08:19;-1.20;99.90
9497;DHT22;4786;51.270;4.456;2022-12-17T18:10:54;-1.30;99.90
9497;DHT22;4786;51.270;4.456;2022-12-17T18:13:21;-1.30;99.90
9497;DHT22;4786;51.270;4.456;2022-12-17T18:16:05;-1.20;99.90
9497;DHT22;4786;51.270;4.456;2022-12-17T18:18:31;-1.10;99.90
9497;DHT22;4786;51.270;4.456;2022-12-17T18:21:05;-1.20;99.90
9497;DHT22;4786;51.270;4.456;2022-12-17T18:23:31;-1.20;99.90
9497;DHT22;4786;51.270;4.456;2022-12-17T18:26:04;-1.10;99.90
9497;DHT22;4786;51.270;4.456;2022-12-17T18:28:30;-1.20;99.90
9497;DHT22;4786;51.270;4.456;2022-12-17T18:30:56;-1.20;99.90
9497;DHT22;4786;51.270;4.456;2022-12-17T18:33:22;-1.20;99.90
9497;DHT22;4786;51.270;4.456;2022-12-17T18:35:49;-1.40;99.90
9497;DHT22;4786;51.270;4.456;2022-12-17T18:38:16;-1.30;99.90
9497;DHT22;4786;51.270;4.456;2022-12-17T18:40:42;-1.30;99.90
9497;DHT22;4786;51.270;4.456;2022-12-17T18:43:08;-1.30;99.90
9497;DHT22;4786;51.270;4.456;2022-12-17T18:45:51;-1.20;99.90
9497;DHT22;4786;51.270;4.456;2022-12-17T18:48:17;-1.20;99.90
9497;DHT22;4786;51.270;4.456;2022-12-17T18:50:43;-1.10;99.90
9497;DHT22;4786;51.270;4.456;2022-12-17T18:53:09;-1.00;99.90
9497;DHT22;4786;51.270;4.456;2022-12-17T18:55:36;-1.00;99.90
9497;DHT22;4786;51.270;4.456;2022-12-17T18:58:08;-1.20;99.90
9497;DHT22;4786;51.270;4.456;2022-12-17T19:00:36;-1.20;99.90
9497;DHT22;4786;51.270;4.456;2022-12-17T19:03:02;-1.10;99.90
9497;DHT22;4786;51.270;4.456;2022-12-17T19:05:30;-1.30;99.90
9497;DHT22;4786;51.270;4.456;2022-12-17T19:07:55;-1.30;99.90
9497;DHT22;4786;51.270;4.456;2022-12-17T19:10:21;-1.40;99.90